sensor_id;sensor_type;location;lat;lon;timestamp;P1;durP1;ratioP1;P2;durP2;ratioP2
73107;SDS011;61559;50.476;15.588;2023-12-29T00:00:54;62.70;;;27.00;;
73107;SDS011;61559;50.476;15.588;2023-12-29T00:03:39;62.90;;;25.30;;
73107;SDS011;61559;50.476;15.588;2023-12-29T00:06:11;73.00;;;25.80;;
73107;SDS011;61559;50.476;15.588;2023-12-29T00:08:42;61.10;;;25.80;;
73107;SDS011;61559;50.476;15.588;2023-12-29T00:11:17;91.50;;;30.80;;
73107;SDS011;61559;50.476;15.588;2023-12-29T00:13:49;74.00;;;27.40;;
73107;SDS011;61559;50.476;15.588;2023-12-29T00:16:20;74.30;;;31.20;;
73107;SDS011;61559;50.476;15.588;2023-12-29T00:18:51;57.10;;;25.10;;
73107;SDS011;61559;50.476;15.588;2023-12-29T00:23:52;58.20;;;24.60;;
73107;SDS011;61559;50.476;15.588;2023-12-29T00:26:24;55.10;;;22.90;;
73107;SDS011;61559;50.476;15.588;2023-12-29T00:28:55;40.30;;;20.30;;
73107;SDS011;61559;50.476;15.588;2023-12-29T00:31:26;44.70;;;19.30;;
73107;SDS011;61559;50.476;15.588;2023-12-29T00:33:58;41.20;;;21.50;;
73107;SDS011;61559;50.476;15.588;2023-12-29T00:36:29;42.50;;;22.10;;
73107;SDS011;61559;50.476;15.588;2023-12-29T00:39:00;41.80;;;20.60;;
73107;SDS011;61559;50.476;15.588;2023-12-29T00:41:32;41.20;;;20.20;;
73107;SDS011;61559;50.476;15.588;2023-12-29T00:44:03;47.20;;;21.60;;
73107;SDS011;61559;50.476;15.588;2023-12-29T00:46:35;46.40;;;20.60;;
73107;SDS011;61559;50.476;15.588;2023-12-29T00:49:06;40.00;;;20.50;;
73107;SDS011;61559;50.476;15.588;2023-12-29T00:54:10;39.10;;;18.60;;
73107;SDS011;61559;50.476;15.588;2023-12-29T00:59:11;46.50;;;21.40;;
73107;SDS011;61559;50.476;15.588;2023-12-29T01:01:42;40.60;;;20.20;;
73107;SDS011;61559;50.476;15.588;2023-12-29T01:04:14;42.10;;;20.80;;
73107;SDS011;61559;50.476;15.588;2023-12-29T01:06:46;35.00;;;19.70;;
73107;SDS011;61559;50.476;15.588;2023-12-29T01:11:46;35.90;;;17.60;;
73107;SDS011;61559;50.476;15.588;2023-12-29T01:16:47;34.50;;;14.90;;
73107;SDS011;61559;50.476;15.588;2023-12-29T01:19:19;33.30;;;16.80;;
73107;SDS011;61559;50.476;15.588;2023-12-29T01:24:19;30.50;;;15.30;;
73107;SDS011;61559;50.476;15.588;2023-12-29T01:27:00;36.30;;;17.70;;
73107;SDS011;61559;50.476;15.588;2023-12-29T01:29:33;31.00;;;16.80;;
73107;SDS011;61559;50.476;15.588;2023-12-29T01:32:05;37.90;;;17.90;;
73107;SDS011;61559;50.476;15.588;2023-12-29T01:34:36;43.70;;;19.60;;
73107;SDS011;61559;50.476;15.588;2023-12-29T01:37:08;47.30;;;21.80;;
73107;SDS011;61559;50.476;15.588;2023-12-29T01:39:39;46.50;;;20.40;;
73107;SDS011;61559;50.476;15.588;2023-12-29T01:42:11;58.80;;;22.40;;
73107;SDS011;61559;50.476;15.588;2023-12-29T01:44:42;60.60;;;22.30;;
73107;SDS011;61559;50.476;15.588;2023-12-29T01:47:15;60.60;;;23.60;;
73107;SDS011;61559;50.476;15.588;2023-12-29T01:49:46;61.60;;;24.40;;
73107;SDS011;61559;50.476;15.588;2023-12-29T01:52:19;63.90;;;25.50;;
73107;SDS011;61559;50.476;15.588;2023-12-29T01:54:51;51.00;;;21.50;;
73107;SDS011;61559;50.476;15.588;2023-12-29T01:57:22;41.90;;;19.80;;
73107;SDS011;61559;50.476;15.588;2023-12-29T02:02:23;36.80;;;16.00;;
73107;SDS011;61559;50.476;15.588;2023-12-29T02:04:55;36.20;;;15.40;;
73107;SDS011;61559;50.476;15.588;2023-12-29T02:07:26;31.80;;;16.90;;
73107;SDS011;61559;50.476;15.588;2023-12-29T02:10:00;32.20;;;16.50;;
73107;SDS011;61559;50.476;15.588;2023-12-29T02:12:32;36.00;;;16.80;;
73107;SDS011;61559;50.476;15.588;2023-12-29T02:15:05;36.00;;;16.20;;
73107;SDS011;61559;50.476;15.588;2023-12-29T02:17:40;32.70;;;16.80;;
73107;SDS011;61559;50.476;15.588;2023-12-29T02:20:14;33.50;;;15.30;;
73107;SDS011;61559;50.476;15.588;2023-12-29T02:22:48;31.60;;;16.90;;
73107;SDS011;61559;50.476;15.588;2023-12-29T02:25:19;36.40;;;16.50;;
73107;SDS011;61559;50.476;15.588;2023-12-29T02:27:51;28.60;;;15.60;;
73107;SDS011;61559;50.476;15.588;2023-12-29T02:30:27;29.40;;;14.80;;
73107;SDS011;61559;50.476;15.588;2023-12-29T02:33:05;33.10;;;15.00;;
73107;SDS011;61559;50.476;15.588;2023-12-29T02:35:42;34.90;;;15.80;;
73107;SDS011;61559;50.476;15.588;2023-12-29T02:38:15;35.70;;;15.90;;
73107;SDS011;61559;50.476;15.588;2023-12-29T02:40:47;42.30;;;17.40;;
73107;SDS011;61559;50.476;15.588;2023-12-29T02:43:18;42.50;;;20.20;;
73107;SDS011;61559;50.476;15.588;2023-12-29T02:45:49;39.00;;;18.50;;
73107;SDS011;61559;50.476;15.588;2023-12-29T02:48:20;51.00;;;19.90;;
73107;SDS011;61559;50.476;15.588;2023-12-29T02:50:52;48.10;;;22.30;;
73107;SDS011;61559;50.476;15.588;2023-12-29T02:53:23;52.40;;;20.60;;
73107;SDS011;61559;50.476;15.588;2023-12-29T02:55:54;40.80;;;18.10;;
73107;SDS011;61559;50.476;15.588;2023-12-29T02:58:25;40.30;;;18.60;;
73107;SDS011;61559;50.476;15.588;2023-12-29T03:00:56;38.30;;;16.30;;
73107;SDS011;61559;50.476;15.588;2023-12-29T03:03:28;33.20;;;16.40;;
73107;SDS011;61559;50.476;15.588;2023-12-29T03:06:00;31.20;;;15.90;;
73107;SDS011;61559;50.476;15.588;2023-12-29T03:08:31;36.80;;;15.30;;
73107;SDS011;61559;50.476;15.588;2023-12-29T03:11:03;34.50;;;17.50;;
73107;SDS011;61559;50.476;15.588;2023-12-29T03:13:34;37.90;;;17.60;;
73107;SDS011;61559;50.476;15.588;2023-12-29T03:18:35;30.20;;;15.20;;
73107;SDS011;61559;50.476;15.588;2023-12-29T03:21:08;31.30;;;14.60;;
73107;SDS011;61559;50.476;15.588;2023-12-29T03:26:09;29.50;;;13.90;;
73107;SDS011;61559;50.476;15.588;2023-12-29T03:28:41;29.30;;;14.10;;
73107;SDS011;61559;50.476;15.588;2023-12-29T03:31:12;35.00;;;15.10;;
73107;SDS011;61559;50.476;15.588;2023-12-29T03:38:43;31.00;;;12.60;;
73107;SDS011;61559;50.476;15.588;2023-12-29T03:41:15;38.80;;;16.90;;
73107;SDS011;61559;50.476;15.588;2023-12-29T03:43:47;36.00;;;14.30;;
73107;SDS011;61559;50.476;15.588;2023-12-29T03:46:19;34.40;;;15.30;;
73107;SDS011;61559;50.476;15.588;2023-12-29T03:48:51;34.80;;;17.00;;
73107;SDS011;61559;50.476;15.588;2023-12-29T03:51:22;29.90;;;16.20;;
73107;SDS011;61559;50.476;15.588;2023-12-29T03:53:53;30.60;;;14.90;;
73107;SDS011;61559;50.476;15.588;2023-12-29T03:56:27;35.80;;;14.30;;
73107;SDS011;61559;50.476;15.588;2023-12-29T03:58:58;27.00;;;12.90;;
73107;SDS011;61559;50.476;15.588;2023-12-29T04:01:29;31.70;;;13.50;;
73107;SDS011;61559;50.476;15.588;2023-12-29T04:04:02;25.60;;;12.00;;
73107;SDS011;61559;50.476;15.588;2023-12-29T04:06:34;28.10;;;13.80;;
73107;SDS011;61559;50.476;15.588;2023-12-29T04:09:06;35.10;;;15.60;;
73107;SDS011;61559;50.476;15.588;2023-12-29T04:14:07;24.90;;;11.60;;
73107;SDS011;61559;50.476;15.588;2023-12-29T04:16:42;26.60;;;13.80;;
73107;SDS011;61559;50.476;15.588;2023-12-29T04:19:14;25.60;;;13.70;;
73107;SDS011;61559;50.476;15.588;2023-12-29T04:21:45;27.50;;;13.00;;
73107;SDS011;61559;50.476;15.588;2023-12-29T04:24:16;30.60;;;12.80;;
73107;SDS011;61559;50.476;15.588;2023-12-29T04:29:17;24.00;;;11.20;;
73107;SDS011;61559;50.476;15.588;2023-12-29T04:31:49;27.20;;;12.50;;
73107;SDS011;61559;50.476;15.588;2023-12-29T04:34:20;25.50;;;11.80;;
73107;SDS011;61559;50.476;15.588;2023-12-29T04:39:21;24.30;;;11.10;;
73107;SDS011;61559;50.476;15.588;2023-12-29T04:41:53;25.20;;;11.90;;
73107;SDS011;61559;50.476;15.588;2023-12-29T04:44:24;23.30;;;12.10;;
73107;SDS011;61559;50.476;15.588;2023-12-29T04:46:55;28.70;;;11.70;;
73107;SDS011;61559;50.476;15.588;2023-12-29T04:49:26;26.90;;;11.10;;
73107;SDS011;61559;50.476;15.588;2023-12-29T04:51:57;26.60;;;11.40;;
73107;SDS011;61559;50.476;15.588;2023-12-29T04:54:29;22.10;;;10.20;;
73107;SDS011;61559;50.476;15.588;2023-12-29T04:57:00;26.50;;;10.50;;
73107;SDS011;61559;50.476;15.588;2023-12-29T04:59:32;28.60;;;10.80;;
73107;SDS011;61559;50.476;15.588;2023-12-29T05:02:03;23.90;;;10.60;;
73107;SDS011;61559;50.476;15.588;2023-12-29T05:04:35;20.50;;;10.10;;
73107;SDS011;61559;50.476;15.588;2023-12-29T05:07:08;18.90;;;8.10;;
73107;SDS011;61559;50.476;15.588;2023-12-29T05:09:41;19.80;;;8.20;;
73107;SDS011;61559;50.476;15.588;2023-12-29T05:12:12;25.20;;;9.00;;
73107;SDS011;61559;50.476;15.588;2023-12-29T05:17:13;17.00;;;6.80;;
73107;SDS011;61559;50.476;15.588;2023-12-29T05:22:14;13.40;;;6.50;;
73107;SDS011;61559;50.476;15.588;2023-12-29T05:24:46;19.80;;;8.80;;
73107;SDS011;61559;50.476;15.588;2023-12-29T05:29:47;16.10;;;6.30;;
73107;SDS011;61559;50.476;15.588;2023-12-29T05:32:18;15.10;;;6.50;;
73107;SDS011;61559;50.476;15.588;2023-12-29T05:34:49;23.60;;;8.60;;
73107;SDS011;61559;50.476;15.588;2023-12-29T05:39:50;19.70;;;8.60;;
73107;SDS011;61559;50.476;15.588;2023-12-29T05:42:21;17.20;;;7.90;;
73107;SDS011;61559;50.476;15.588;2023-12-29T05:44:52;15.80;;;7.10;;
73107;SDS011;61559;50.476;15.588;2023-12-29T05:47:23;12.50;;;6.50;;
73107;SDS011;61559;50.476;15.588;2023-12-29T05:49:55;15.60;;;7.40;;
73107;SDS011;61559;50.476;15.588;2023-12-29T05:52:26;14.40;;;6.20;;
73107;SDS011;61559;50.476;15.588;2023-12-29T05:54:58;12.20;;;6.40;;
73107;SDS011;61559;50.476;15.588;2023-12-29T05:57:31;13.20;;;6.20;;
73107;SDS011;61559;50.476;15.588;2023-12-29T06:02:33;11.70;;;5.90;;
73107;SDS011;61559;50.476;15.588;2023-12-29T06:05:04;9.70;;;5.60;;
73107;SDS011;61559;50.476;15.588;2023-12-29T06:07:36;11.50;;;6.00;;
73107;SDS011;61559;50.476;15.588;2023-12-29T06:10:07;14.50;;;9.00;;
73107;SDS011;61559;50.476;15.588;2023-12-29T06:12:39;11.80;;;6.50;;
73107;SDS011;61559;50.476;15.588;2023-12-29T06:15:12;9.30;;;4.80;;
73107;SDS011;61559;50.476;15.588;2023-12-29T06:17:44;9.90;;;5.70;;
73107;SDS011;61559;50.476;15.588;2023-12-29T06:20:16;9.50;;;5.30;;
73107;SDS011;61559;50.476;15.588;2023-12-29T06:22:48;8.80;;;5.10;;
73107;SDS011;61559;50.476;15.588;2023-12-29T06:25:20;12.00;;;6.20;;
73107;SDS011;61559;50.476;15.588;2023-12-29T06:30:20;24.60;;;12.20;;
73107;SDS011;61559;50.476;15.588;2023-12-29T06:35:21;35.10;;;17.40;;
73107;SDS011;61559;50.476;15.588;2023-12-29T06:40:22;37.10;;;18.30;;
73107;SDS011;61559;50.476;15.588;2023-12-29T06:42:54;35.70;;;19.70;;
73107;SDS011;61559;50.476;15.588;2023-12-29T06:45:25;27.60;;;14.10;;
73107;SDS011;61559;50.476;15.588;2023-12-29T06:47:56;10.20;;;6.20;;
73107;SDS011;61559;50.476;15.588;2023-12-29T06:50:29;18.40;;;8.60;;
73107;SDS011;61559;50.476;15.588;2023-12-29T06:53:01;12.80;;;7.40;;
73107;SDS011;61559;50.476;15.588;2023-12-29T06:55:33;14.60;;;8.60;;
73107;SDS011;61559;50.476;15.588;2023-12-29T06:58:04;27.70;;;14.00;;
73107;SDS011;61559;50.476;15.588;2023-12-29T07:00:36;13.40;;;7.90;;
73107;SDS011;61559;50.476;15.588;2023-12-29T07:03:09;17.90;;;8.50;;
73107;SDS011;61559;50.476;15.588;2023-12-29T07:05:41;17.60;;;10.60;;
73107;SDS011;61559;50.476;15.588;2023-12-29T07:08:14;24.60;;;13.70;;
73107;SDS011;61559;50.476;15.588;2023-12-29T07:10:45;20.50;;;11.10;;
73107;SDS011;61559;50.476;15.588;2023-12-29T07:13:18;20.10;;;10.70;;
73107;SDS011;61559;50.476;15.588;2023-12-29T07:15:50;25.00;;;11.10;;
73107;SDS011;61559;50.476;15.588;2023-12-29T07:18:21;24.00;;;13.10;;
73107;SDS011;61559;50.476;15.588;2023-12-29T07:20:52;20.60;;;10.20;;
73107;SDS011;61559;50.476;15.588;2023-12-29T07:23:23;21.70;;;10.30;;
73107;SDS011;61559;50.476;15.588;2023-12-29T07:25:54;21.50;;;10.80;;
73107;SDS011;61559;50.476;15.588;2023-12-29T07:28:25;19.70;;;10.00;;
73107;SDS011;61559;50.476;15.588;2023-12-29T07:33:26;22.50;;;10.50;;
73107;SDS011;61559;50.476;15.588;2023-12-29T07:35:58;29.30;;;11.00;;
73107;SDS011;61559;50.476;15.588;2023-12-29T07:38:30;25.10;;;10.90;;
73107;SDS011;61559;50.476;15.588;2023-12-29T07:41:02;18.30;;;9.10;;
73107;SDS011;61559;50.476;15.588;2023-12-29T07:43:34;35.40;;;13.90;;
73107;SDS011;61559;50.476;15.588;2023-12-29T07:46:05;19.70;;;9.30;;
73107;SDS011;61559;50.476;15.588;2023-12-29T07:51:07;22.90;;;11.90;;
73107;SDS011;61559;50.476;15.588;2023-12-29T07:56:08;18.90;;;9.50;;
73107;SDS011;61559;50.476;15.588;2023-12-29T07:58:40;15.80;;;7.90;;
73107;SDS011;61559;50.476;15.588;2023-12-29T08:01:14;15.80;;;9.50;;
73107;SDS011;61559;50.476;15.588;2023-12-29T08:03:46;19.20;;;9.30;;
73107;SDS011;61559;50.476;15.588;2023-12-29T08:06:18;13.40;;;7.30;;
73107;SDS011;61559;50.476;15.588;2023-12-29T08:08:49;14.50;;;7.80;;
73107;SDS011;61559;50.476;15.588;2023-12-29T08:11:20;20.10;;;9.40;;
73107;SDS011;61559;50.476;15.588;2023-12-29T08:13:51;18.30;;;9.80;;
73107;SDS011;61559;50.476;15.588;2023-12-29T08:16:23;19.50;;;10.30;;
73107;SDS011;61559;50.476;15.588;2023-12-29T08:18:54;21.70;;;11.90;;
73107;SDS011;61559;50.476;15.588;2023-12-29T08:21:26;18.50;;;11.50;;
73107;SDS011;61559;50.476;15.588;2023-12-29T08:26:27;19.70;;;11.80;;
73107;SDS011;61559;50.476;15.588;2023-12-29T08:31:27;36.20;;;18.90;;
73107;SDS011;61559;50.476;15.588;2023-12-29T08:33:59;37.40;;;20.70;;
73107;SDS011;61559;50.476;15.588;2023-12-29T08:36:30;24.20;;;16.20;;
73107;SDS011;61559;50.476;15.588;2023-12-29T08:39:01;27.20;;;17.40;;
73107;SDS011;61559;50.476;15.588;2023-12-29T08:41:33;24.30;;;17.10;;
73107;SDS011;61559;50.476;15.588;2023-12-29T08:44:04;31.20;;;20.30;;
73107;SDS011;61559;50.476;15.588;2023-12-29T08:46:35;44.20;;;21.90;;
73107;SDS011;61559;50.476;15.588;2023-12-29T08:51:37;18.90;;;10.80;;
73107;SDS011;61559;50.476;15.588;2023-12-29T08:54:08;20.10;;;12.50;;
73107;SDS011;61559;50.476;15.588;2023-12-29T08:56:39;33.90;;;16.30;;
73107;SDS011;61559;50.476;15.588;2023-12-29T08:59:11;35.80;;;16.40;;
73107;SDS011;61559;50.476;15.588;2023-12-29T09:01:42;36.40;;;18.00;;
73107;SDS011;61559;50.476;15.588;2023-12-29T09:04:14;24.10;;;12.70;;
73107;SDS011;61559;50.476;15.588;2023-12-29T09:06:45;28.00;;;13.20;;
73107;SDS011;61559;50.476;15.588;2023-12-29T09:09:16;19.00;;;10.10;;
73107;SDS011;61559;50.476;15.588;2023-12-29T09:11:47;18.50;;;8.60;;
73107;SDS011;61559;50.476;15.588;2023-12-29T09:14:19;16.10;;;8.30;;
73107;SDS011;61559;50.476;15.588;2023-12-29T09:16:50;14.20;;;6.80;;
73107;SDS011;61559;50.476;15.588;2023-12-29T09:19:22;15.50;;;6.70;;
73107;SDS011;61559;50.476;15.588;2023-12-29T09:22:06;9.80;;;4.90;;
73107;SDS011;61559;50.476;15.588;2023-12-29T09:24:37;5.90;;;3.90;;
73107;SDS011;61559;50.476;15.588;2023-12-29T09:29:38;7.10;;;3.70;;
73107;SDS011;61559;50.476;15.588;2023-12-29T09:32:09;9.40;;;3.90;;
73107;SDS011;61559;50.476;15.588;2023-12-29T09:34:41;12.10;;;5.30;;
73107;SDS011;61559;50.476;15.588;2023-12-29T09:37:12;9.80;;;4.20;;
73107;SDS011;61559;50.476;15.588;2023-12-29T09:39:44;9.30;;;4.40;;
73107;SDS011;61559;50.476;15.588;2023-12-29T09:42:17;13.00;;;5.70;;
73107;SDS011;61559;50.476;15.588;2023-12-29T09:44:52;8.10;;;3.90;;
73107;SDS011;61559;50.476;15.588;2023-12-29T09:47:23;9.90;;;5.60;;
73107;SDS011;61559;50.476;15.588;2023-12-29T09:49:56;13.90;;;5.80;;
73107;SDS011;61559;50.476;15.588;2023-12-29T09:52:30;6.80;;;4.30;;
73107;SDS011;61559;50.476;15.588;2023-12-29T09:55:03;7.10;;;3.60;;
73107;SDS011;61559;50.476;15.588;2023-12-29T09:57:38;11.70;;;5.30;;
73107;SDS011;61559;50.476;15.588;2023-12-29T10:00:11;9.20;;;3.90;;
73107;SDS011;61559;50.476;15.588;2023-12-29T10:02:45;5.60;;;3.00;;
73107;SDS011;61559;50.476;15.588;2023-12-29T10:05:17;5.20;;;3.50;;
73107;SDS011;61559;50.476;15.588;2023-12-29T10:07:48;7.00;;;3.90;;
73107;SDS011;61559;50.476;15.588;2023-12-29T10:10:22;9.20;;;4.30;;
73107;SDS011;61559;50.476;15.588;2023-12-29T10:12:55;6.40;;;3.60;;
73107;SDS011;61559;50.476;15.588;2023-12-29T10:15:31;9.10;;;4.40;;
73107;SDS011;61559;50.476;15.588;2023-12-29T10:18:10;10.50;;;6.10;;
73107;SDS011;61559;50.476;15.588;2023-12-29T10:21:05;5.40;;;3.20;;
73107;SDS011;61559;50.476;15.588;2023-12-29T10:23:42;7.50;;;4.40;;
73107;SDS011;61559;50.476;15.588;2023-12-29T10:26:17;6.60;;;3.90;;
73107;SDS011;61559;50.476;15.588;2023-12-29T10:28:48;9.90;;;6.40;;
73107;SDS011;61559;50.476;15.588;2023-12-29T10:31:20;9.00;;;4.90;;
73107;SDS011;61559;50.476;15.588;2023-12-29T10:33:52;6.20;;;4.00;;
73107;SDS011;61559;50.476;15.588;2023-12-29T10:36:48;8.10;;;4.70;;
73107;SDS011;61559;50.476;15.588;2023-12-29T10:39:19;10.30;;;4.40;;
73107;SDS011;61559;50.476;15.588;2023-12-29T10:41:51;7.70;;;3.60;;
73107;SDS011;61559;50.476;15.588;2023-12-29T10:44:37;7.20;;;3.20;;
73107;SDS011;61559;50.476;15.588;2023-12-29T10:47:08;4.70;;;2.80;;
73107;SDS011;61559;50.476;15.588;2023-12-29T10:49:40;9.60;;;4.20;;
73107;SDS011;61559;50.476;15.588;2023-12-29T10:52:13;9.20;;;4.10;;
73107;SDS011;61559;50.476;15.588;2023-12-29T10:54:45;12.20;;;5.40;;
73107;SDS011;61559;50.476;15.588;2023-12-29T10:57:16;6.70;;;2.80;;
73107;SDS011;61559;50.476;15.588;2023-12-29T10:59:52;4.30;;;2.60;;
73107;SDS011;61559;50.476;15.588;2023-12-29T11:02:32;12.60;;;4.30;;
73107;SDS011;61559;50.476;15.588;2023-12-29T11:05:04;9.00;;;3.80;;
73107;SDS011;61559;50.476;15.588;2023-12-29T11:07:38;10.60;;;4.10;;
73107;SDS011;61559;50.476;15.588;2023-12-29T11:10:10;7.40;;;3.90;;
73107;SDS011;61559;50.476;15.588;2023-12-29T11:12:42;4.70;;;3.10;;
73107;SDS011;61559;50.476;15.588;2023-12-29T11:15:14;5.50;;;3.00;;
73107;SDS011;61559;50.476;15.588;2023-12-29T11:17:46;12.40;;;6.50;;
73107;SDS011;61559;50.476;15.588;2023-12-29T11:20:25;7.20;;;3.50;;
73107;SDS011;61559;50.476;15.588;2023-12-29T11:22:57;6.80;;;3.70;;
73107;SDS011;61559;50.476;15.588;2023-12-29T11:25:30;2.90;;;2.10;;
73107;SDS011;61559;50.476;15.588;2023-12-29T11:28:01;9.30;;;5.10;;
73107;SDS011;61559;50.476;15.588;2023-12-29T11:30:33;5.00;;;2.60;;
73107;SDS011;61559;50.476;15.588;2023-12-29T11:33:07;6.40;;;2.80;;
73107;SDS011;61559;50.476;15.588;2023-12-29T11:35:44;4.80;;;3.50;;
73107;SDS011;61559;50.476;15.588;2023-12-29T11:38:23;2.90;;;2.40;;
73107;SDS011;61559;50.476;15.588;2023-12-29T11:41:08;5.00;;;3.00;;
73107;SDS011;61559;50.476;15.588;2023-12-29T11:43:43;3.70;;;2.20;;
73107;SDS011;61559;50.476;15.588;2023-12-29T11:49:05;4.30;;;2.30;;
73107;SDS011;61559;50.476;15.588;2023-12-29T11:51:39;3.00;;;2.00;;
73107;SDS011;61559;50.476;15.588;2023-12-29T11:54:20;3.30;;;1.80;;
73107;SDS011;61559;50.476;15.588;2023-12-29T11:56:53;2.80;;;1.60;;
73107;SDS011;61559;50.476;15.588;2023-12-29T11:59:25;2.10;;;1.80;;
73107;SDS011;61559;50.476;15.588;2023-12-29T12:01:57;2.40;;;1.60;;
73107;SDS011;61559;50.476;15.588;2023-12-29T12:04:38;3.80;;;1.90;;
73107;SDS011;61559;50.476;15.588;2023-12-29T12:07:15;1.80;;;1.30;;
73107;SDS011;61559;50.476;15.588;2023-12-29T12:10:29;2.80;;;1.70;;
73107;SDS011;61559;50.476;15.588;2023-12-29T12:13:07;26.30;;;8.00;;
73107;SDS011;61559;50.476;15.588;2023-12-29T12:15:39;48.60;;;16.50;;
73107;SDS011;61559;50.476;15.588;2023-12-29T12:18:11;14.60;;;4.70;;
73107;SDS011;61559;50.476;15.588;2023-12-29T12:20:42;27.70;;;10.60;;
73107;SDS011;61559;50.476;15.588;2023-12-29T12:25:49;5.80;;;3.20;;
73107;SDS011;61559;50.476;15.588;2023-12-29T12:28:28;3.50;;;1.50;;
73107;SDS011;61559;50.476;15.588;2023-12-29T12:31:07;2.60;;;1.50;;
73107;SDS011;61559;50.476;15.588;2023-12-29T12:33:42;2.30;;;1.30;;
73107;SDS011;61559;50.476;15.588;2023-12-29T12:36:24;3.10;;;1.50;;
73107;SDS011;61559;50.476;15.588;2023-12-29T12:38:56;2.80;;;1.60;;
73107;SDS011;61559;50.476;15.588;2023-12-29T12:41:29;3.00;;;1.60;;
73107;SDS011;61559;50.476;15.588;2023-12-29T12:44:03;2.40;;;1.60;;
73107;SDS011;61559;50.476;15.588;2023-12-29T12:46:41;3.10;;;1.50;;
73107;SDS011;61559;50.476;15.588;2023-12-29T12:49:19;4.00;;;2.20;;
73107;SDS011;61559;50.476;15.588;2023-12-29T12:51:52;2.40;;;1.80;;
73107;SDS011;61559;50.476;15.588;2023-12-29T12:54:24;3.50;;;1.80;;
73107;SDS011;61559;50.476;15.588;2023-12-29T12:56:56;3.00;;;1.70;;
73107;SDS011;61559;50.476;15.588;2023-12-29T12:59:28;3.90;;;2.00;;
73107;SDS011;61559;50.476;15.588;2023-12-29T13:02:01;3.80;;;2.20;;
73107;SDS011;61559;50.476;15.588;2023-12-29T13:04:35;2.60;;;1.70;;
73107;SDS011;61559;50.476;15.588;2023-12-29T13:07:08;4.50;;;2.50;;
73107;SDS011;61559;50.476;15.588;2023-12-29T13:09:40;2.80;;;1.70;;
73107;SDS011;61559;50.476;15.588;2023-12-29T13:12:13;4.30;;;2.00;;
73107;SDS011;61559;50.476;15.588;2023-12-29T13:14:45;2.80;;;1.40;;
73107;SDS011;61559;50.476;15.588;2023-12-29T13:17:16;2.30;;;1.40;;
73107;SDS011;61559;50.476;15.588;2023-12-29T13:19:57;2.50;;;1.40;;
73107;SDS011;61559;50.476;15.588;2023-12-29T13:22:30;2.10;;;1.30;;
73107;SDS011;61559;50.476;15.588;2023-12-29T13:25:02;1.70;;;1.40;;
73107;SDS011;61559;50.476;15.588;2023-12-29T13:27:40;2.80;;;1.70;;
73107;SDS011;61559;50.476;15.588;2023-12-29T13:30:12;2.00;;;1.50;;
73107;SDS011;61559;50.476;15.588;2023-12-29T13:32:44;2.40;;;1.60;;
73107;SDS011;61559;50.476;15.588;2023-12-29T13:35:18;2.50;;;1.70;;
73107;SDS011;61559;50.476;15.588;2023-12-29T13:37:54;3.70;;;2.70;;
73107;SDS011;61559;50.476;15.588;2023-12-29T13:40:38;5.50;;;1.80;;
73107;SDS011;61559;50.476;15.588;2023-12-29T13:43:13;4.90;;;2.50;;
73107;SDS011;61559;50.476;15.588;2023-12-29T13:45:47;6.20;;;3.70;;
73107;SDS011;61559;50.476;15.588;2023-12-29T13:48:20;4.40;;;2.80;;
73107;SDS011;61559;50.476;15.588;2023-12-29T13:50:52;10.70;;;5.20;;
73107;SDS011;61559;50.476;15.588;2023-12-29T13:53:23;4.40;;;2.80;;
73107;SDS011;61559;50.476;15.588;2023-12-29T13:55:54;13.00;;;7.20;;
73107;SDS011;61559;50.476;15.588;2023-12-29T14:01:08;12.60;;;5.00;;
73107;SDS011;61559;50.476;15.588;2023-12-29T14:03:42;10.50;;;4.50;;
73107;SDS011;61559;50.476;15.588;2023-12-29T14:06:21;14.10;;;6.30;;
73107;SDS011;61559;50.476;15.588;2023-12-29T14:09:01;12.00;;;7.40;;
73107;SDS011;61559;50.476;15.588;2023-12-29T14:11:33;18.40;;;16.60;;
73107;SDS011;61559;50.476;15.588;2023-12-29T14:14:05;12.20;;;10.80;;
73107;SDS011;61559;50.476;15.588;2023-12-29T14:16:39;8.70;;;6.10;;
73107;SDS011;61559;50.476;15.588;2023-12-29T14:19:10;6.80;;;3.80;;
73107;SDS011;61559;50.476;15.588;2023-12-29T14:21:41;10.90;;;5.30;;
73107;SDS011;61559;50.476;15.588;2023-12-29T14:24:14;8.70;;;3.80;;
73107;SDS011;61559;50.476;15.588;2023-12-29T14:26:55;6.70;;;4.00;;
73107;SDS011;61559;50.476;15.588;2023-12-29T14:29:29;10.70;;;7.00;;
73107;SDS011;61559;50.476;15.588;2023-12-29T14:32:11;11.50;;;5.50;;
73107;SDS011;61559;50.476;15.588;2023-12-29T14:34:42;10.80;;;4.00;;
73107;SDS011;61559;50.476;15.588;2023-12-29T14:37:19;9.50;;;3.20;;
73107;SDS011;61559;50.476;15.588;2023-12-29T14:39:51;9.90;;;5.00;;
73107;SDS011;61559;50.476;15.588;2023-12-29T14:42:23;16.20;;;5.70;;
73107;SDS011;61559;50.476;15.588;2023-12-29T14:44:54;4.50;;;2.10;;
73107;SDS011;61559;50.476;15.588;2023-12-29T14:47:25;6.00;;;2.70;;
73107;SDS011;61559;50.476;15.588;2023-12-29T14:49:57;8.80;;;4.30;;
73107;SDS011;61559;50.476;15.588;2023-12-29T14:52:31;11.80;;;4.60;;
73107;SDS011;61559;50.476;15.588;2023-12-29T14:55:02;20.00;;;9.40;;
73107;SDS011;61559;50.476;15.588;2023-12-29T14:57:35;9.50;;;4.90;;
73107;SDS011;61559;50.476;15.588;2023-12-29T15:00:07;15.60;;;11.20;;
73107;SDS011;61559;50.476;15.588;2023-12-29T15:02:39;12.50;;;6.90;;
73107;SDS011;61559;50.476;15.588;2023-12-29T15:05:11;7.60;;;6.20;;
73107;SDS011;61559;50.476;15.588;2023-12-29T15:07:44;6.50;;;5.00;;
73107;SDS011;61559;50.476;15.588;2023-12-29T15:10:15;3.60;;;2.50;;
73107;SDS011;61559;50.476;15.588;2023-12-29T15:12:47;5.80;;;2.70;;
73107;SDS011;61559;50.476;15.588;2023-12-29T15:15:18;2.90;;;1.50;;
73107;SDS011;61559;50.476;15.588;2023-12-29T15:17:49;2.30;;;1.80;;
73107;SDS011;61559;50.476;15.588;2023-12-29T15:20:20;5.90;;;3.10;;
73107;SDS011;61559;50.476;15.588;2023-12-29T15:22:52;4.30;;;3.10;;
73107;SDS011;61559;50.476;15.588;2023-12-29T15:25:23;4.30;;;2.60;;
73107;SDS011;61559;50.476;15.588;2023-12-29T15:27:56;3.70;;;1.80;;
73107;SDS011;61559;50.476;15.588;2023-12-29T15:30:27;3.80;;;2.50;;
73107;SDS011;61559;50.476;15.588;2023-12-29T15:32:58;6.50;;;3.70;;
73107;SDS011;61559;50.476;15.588;2023-12-29T15:35:30;4.20;;;2.40;;
73107;SDS011;61559;50.476;15.588;2023-12-29T15:38:01;4.70;;;2.10;;
73107;SDS011;61559;50.476;15.588;2023-12-29T15:40:32;10.40;;;4.50;;
73107;SDS011;61559;50.476;15.588;2023-12-29T15:43:04;13.70;;;6.70;;
73107;SDS011;61559;50.476;15.588;2023-12-29T15:45:36;14.80;;;7.10;;
73107;SDS011;61559;50.476;15.588;2023-12-29T15:50:38;5.10;;;2.80;;
73107;SDS011;61559;50.476;15.588;2023-12-29T15:53:09;16.10;;;8.50;;
73107;SDS011;61559;50.476;15.588;2023-12-29T15:55:40;14.30;;;6.70;;
73107;SDS011;61559;50.476;15.588;2023-12-29T15:58:11;15.20;;;6.30;;
73107;SDS011;61559;50.476;15.588;2023-12-29T16:00:42;22.10;;;10.20;;
73107;SDS011;61559;50.476;15.588;2023-12-29T16:03:14;36.40;;;14.50;;
73107;SDS011;61559;50.476;15.588;2023-12-29T16:05:46;29.60;;;12.10;;
73107;SDS011;61559;50.476;15.588;2023-12-29T16:08:18;23.90;;;10.30;;
73107;SDS011;61559;50.476;15.588;2023-12-29T16:10:49;7.50;;;4.30;;
73107;SDS011;61559;50.476;15.588;2023-12-29T16:13:19;6.10;;;3.20;;
73107;SDS011;61559;50.476;15.588;2023-12-29T16:15:51;2.80;;;1.70;;